sensor_id;sensor_type;location;lat;lon;timestamp;P1;durP1;ratioP1;P2;durP2;ratioP2
12312;SDS011;6220;53.580;9.758;2023-04-27T00:00:43;5.37;;;3.10;;
12312;SDS011;6220;53.580;9.758;2023-04-27T00:03:08;5.60;;;3.00;;
12312;SDS011;6220;53.580;9.758;2023-04-27T00:05:37;8.17;;;3.13;;
12312;SDS011;6220;53.580;9.758;2023-04-27T00:08:06;6.57;;;2.93;;
12312;SDS011;6220;53.580;9.758;2023-04-27T00:10:32;4.80;;;2.90;;
12312;SDS011;6220;53.580;9.758;2023-04-27T00:13:00;10.40;;;4.50;;
12312;SDS011;6220;53.580;9.758;2023-04-27T00:15:26;5.23;;;3.47;;
12312;SDS011;6220;53.580;9.758;2023-04-27T00:17:51;5.67;;;3.43;;
12312;SDS011;6220;53.580;9.758;2023-04-27T00:20:18;5.40;;;2.80;;
12312;SDS011;6220;53.580;9.758;2023-04-27T00:22:45;9.53;;;3.23;;
12312;SDS011;6220;53.580;9.758;2023-04-27T00:25:11;5.20;;;2.70;;
12312;SDS011;6220;53.580;9.758;2023-04-27T00:27:37;5.73;;;2.87;;
12312;SDS011;6220;53.580;9.758;2023-04-27T00:30:02;5.77;;;2.70;;
12312;SDS011;6220;53.580;9.758;2023-04-27T00:32:28;6.30;;;2.83;;
12312;SDS011;6220;53.580;9.758;2023-04-27T00:34:54;5.97;;;3.10;;
12312;SDS011;6220;53.580;9.758;2023-04-27T00:37:19;5.70;;;2.90;;
12312;SDS011;6220;53.580;9.758;2023-04-27T00:39:45;6.83;;;3.13;;
12312;SDS011;6220;53.580;9.758;2023-04-27T00:42:10;5.90;;;3.47;;
12312;SDS011;6220;53.580;9.758;2023-04-27T00:44:39;7.00;;;3.30;;
12312;SDS011;6220;53.580;9.758;2023-04-27T00:47:04;5.77;;;2.87;;
12312;SDS011;6220;53.580;9.758;2023-04-27T00:49:30;6.97;;;3.40;;
12312;SDS011;6220;53.580;9.758;2023-04-27T00:51:56;8.37;;;3.20;;
12312;SDS011;6220;53.580;9.758;2023-04-27T00:54:22;6.73;;;3.53;;
12312;SDS011;6220;53.580;9.758;2023-04-27T00:56:48;5.83;;;3.50;;
12312;SDS011;6220;53.580;9.758;2023-04-27T00:59:15;6.00;;;3.20;;
12312;SDS011;6220;53.580;9.758;2023-04-27T01:01:41;8.43;;;4.13;;
12312;SDS011;6220;53.580;9.758;2023-04-27T01:04:06;9.57;;;5.43;;
12312;SDS011;6220;53.580;9.758;2023-04-27T01:06:32;5.27;;;3.37;;
12312;SDS011;6220;53.580;9.758;2023-04-27T01:08:57;5.53;;;3.30;;
12312;SDS011;6220;53.580;9.758;2023-04-27T01:11:23;4.50;;;3.00;;
12312;SDS011;6220;53.580;9.758;2023-04-27T01:13:48;7.60;;;3.10;;
12312;SDS011;6220;53.580;9.758;2023-04-27T01:16:16;6.73;;;3.57;;
12312;SDS011;6220;53.580;9.758;2023-04-27T01:18:41;6.30;;;3.40;;
12312;SDS011;6220;53.580;9.758;2023-04-27T01:21:08;6.17;;;3.70;;
12312;SDS011;6220;53.580;9.758;2023-04-27T01:23:34;4.80;;;3.17;;
12312;SDS011;6220;53.580;9.758;2023-04-27T01:25:59;8.37;;;3.33;;
12312;SDS011;6220;53.580;9.758;2023-04-27T01:28:25;7.70;;;3.00;;
12312;SDS011;6220;53.580;9.758;2023-04-27T01:30:50;4.37;;;3.30;;
12312;SDS011;6220;53.580;9.758;2023-04-27T01:33:16;5.93;;;3.30;;
12312;SDS011;6220;53.580;9.758;2023-04-27T01:35:41;5.40;;;3.30;;
12312;SDS011;6220;53.580;9.758;2023-04-27T01:38:07;5.47;;;3.30;;
12312;SDS011;6220;53.580;9.758;2023-04-27T01:40:32;6.33;;;4.10;;
12312;SDS011;6220;53.580;9.758;2023-04-27T01:42:57;6.23;;;3.63;;
12312;SDS011;6220;53.580;9.758;2023-04-27T01:45:23;6.67;;;3.90;;
12312;SDS011;6220;53.580;9.758;2023-04-27T01:47:52;5.40;;;3.53;;
12312;SDS011;6220;53.580;9.758;2023-04-27T01:50:17;6.83;;;3.67;;
12312;SDS011;6220;53.580;9.758;2023-04-27T01:52:43;4.90;;;3.50;;
12312;SDS011;6220;53.580;9.758;2023-04-27T01:55:08;5.30;;;3.80;;
12312;SDS011;6220;53.580;9.758;2023-04-27T01:57:35;7.03;;;3.77;;
12312;SDS011;6220;53.580;9.758;2023-04-27T02:00:00;5.40;;;3.90;;
12312;SDS011;6220;53.580;9.758;2023-04-27T02:02:25;11.33;;;3.63;;
12312;SDS011;6220;53.580;9.758;2023-04-27T02:04:51;5.43;;;3.20;;
12312;SDS011;6220;53.580;9.758;2023-04-27T02:07:16;8.00;;;3.20;;
12312;SDS011;6220;53.580;9.758;2023-04-27T02:09:42;3.97;;;3.03;;
12312;SDS011;6220;53.580;9.758;2023-04-27T02:12:07;5.27;;;2.60;;
12312;SDS011;6220;53.580;9.758;2023-04-27T02:14:32;4.37;;;2.70;;
12312;SDS011;6220;53.580;9.758;2023-04-27T02:16:58;4.93;;;2.50;;
12312;SDS011;6220;53.580;9.758;2023-04-27T02:19:23;4.67;;;3.00;;
12312;SDS011;6220;53.580;9.758;2023-04-27T02:21:49;4.43;;;2.40;;
12312;SDS011;6220;53.580;9.758;2023-04-27T02:24:14;4.77;;;2.63;;
12312;SDS011;6220;53.580;9.758;2023-04-27T02:26:40;6.80;;;2.80;;
12312;SDS011;6220;53.580;9.758;2023-04-27T02:29:05;7.97;;;2.57;;
12312;SDS011;6220;53.580;9.758;2023-04-27T02:31:30;4.60;;;2.77;;
12312;SDS011;6220;53.580;9.758;2023-04-27T02:33:57;4.10;;;1.90;;
12312;SDS011;6220;53.580;9.758;2023-04-27T02:36:23;2.80;;;2.30;;
12312;SDS011;6220;53.580;9.758;2023-04-27T02:38:48;4.13;;;2.50;;
12312;SDS011;6220;53.580;9.758;2023-04-27T02:41:13;4.83;;;2.53;;
12312;SDS011;6220;53.580;9.758;2023-04-27T02:43:39;6.00;;;2.53;;
12312;SDS011;6220;53.580;9.758;2023-04-27T02:46:04;4.43;;;2.00;;
12312;SDS011;6220;53.580;9.758;2023-04-27T02:48:30;5.03;;;2.20;;
12312;SDS011;6220;53.580;9.758;2023-04-27T02:50:55;7.17;;;2.30;;
12312;SDS011;6220;53.580;9.758;2023-04-27T02:53:21;5.53;;;2.30;;
12312;SDS011;6220;53.580;9.758;2023-04-27T02:55:47;6.13;;;2.60;;
12312;SDS011;6220;53.580;9.758;2023-04-27T02:58:13;2.97;;;2.20;;
12312;SDS011;6220;53.580;9.758;2023-04-27T03:00:39;3.43;;;2.23;;
12312;SDS011;6220;53.580;9.758;2023-04-27T03:03:05;9.07;;;2.50;;
12312;SDS011;6220;53.580;9.758;2023-04-27T03:05:31;6.33;;;2.67;;
12312;SDS011;6220;53.580;9.758;2023-04-27T03:07:57;5.10;;;2.33;;
12312;SDS011;6220;53.580;9.758;2023-04-27T03:10:22;5.30;;;2.30;;
12312;SDS011;6220;53.580;9.758;2023-04-27T03:12:48;5.20;;;3.37;;
12312;SDS011;6220;53.580;9.758;2023-04-27T03:15:13;8.17;;;2.57;;
12312;SDS011;6220;53.580;9.758;2023-04-27T03:17:38;3.27;;;2.67;;
12312;SDS011;6220;53.580;9.758;2023-04-27T03:20:04;5.60;;;3.30;;
12312;SDS011;6220;53.580;9.758;2023-04-27T03:22:33;6.83;;;3.37;;
12312;SDS011;6220;53.580;9.758;2023-04-27T03:24:59;6.90;;;3.43;;
12312;SDS011;6220;53.580;9.758;2023-04-27T03:27:24;8.70;;;3.70;;
12312;SDS011;6220;53.580;9.758;2023-04-27T03:29:50;6.80;;;3.60;;
12312;SDS011;6220;53.580;9.758;2023-04-27T03:32:17;6.77;;;3.80;;
12312;SDS011;6220;53.580;9.758;2023-04-27T03:34:42;7.97;;;4.33;;
12312;SDS011;6220;53.580;9.758;2023-04-27T03:37:08;5.07;;;3.83;;
12312;SDS011;6220;53.580;9.758;2023-04-27T03:39:33;6.23;;;4.73;;
12312;SDS011;6220;53.580;9.758;2023-04-27T03:41:59;7.00;;;4.13;;
12312;SDS011;6220;53.580;9.758;2023-04-27T03:44:24;6.37;;;4.50;;
12312;SDS011;6220;53.580;9.758;2023-04-27T03:46:49;9.57;;;4.33;;
12312;SDS011;6220;53.580;9.758;2023-04-27T03:49:15;4.60;;;3.97;;
12312;SDS011;6220;53.580;9.758;2023-04-27T03:51:40;6.10;;;4.00;;
12312;SDS011;6220;53.580;9.758;2023-04-27T03:54:06;8.57;;;4.27;;
12312;SDS011;6220;53.580;9.758;2023-04-27T03:56:33;7.53;;;4.40;;
12312;SDS011;6220;53.580;9.758;2023-04-27T03:58:58;7.60;;;4.23;;
12312;SDS011;6220;53.580;9.758;2023-04-27T04:01:24;8.40;;;3.80;;
12312;SDS011;6220;53.580;9.758;2023-04-27T04:03:49;7.60;;;3.73;;
12312;SDS011;6220;53.580;9.758;2023-04-27T04:06:15;6.90;;;4.33;;
12312;SDS011;6220;53.580;9.758;2023-04-27T04:08:40;5.70;;;3.50;;
12312;SDS011;6220;53.580;9.758;2023-04-27T04:11:06;6.43;;;4.33;;
12312;SDS011;6220;53.580;9.758;2023-04-27T04:13:32;8.67;;;3.90;;
12312;SDS011;6220;53.580;9.758;2023-04-27T04:16:03;5.57;;;3.90;;
12312;SDS011;6220;53.580;9.758;2023-04-27T04:18:29;4.67;;;3.27;;
12312;SDS011;6220;53.580;9.758;2023-04-27T04:20:55;4.50;;;3.57;;
12312;SDS011;6220;53.580;9.758;2023-04-27T04:23:20;5.60;;;3.80;;
12312;SDS011;6220;53.580;9.758;2023-04-27T04:25:45;8.43;;;3.63;;
12312;SDS011;6220;53.580;9.758;2023-04-27T04:28:12;5.20;;;3.83;;
12312;SDS011;6220;53.580;9.758;2023-04-27T04:30:37;7.47;;;3.73;;
12312;SDS011;6220;53.580;9.758;2023-04-27T04:33:03;5.23;;;3.80;;
12312;SDS011;6220;53.580;9.758;2023-04-27T04:35:29;5.90;;;3.80;;
12312;SDS011;6220;53.580;9.758;2023-04-27T04:37:57;4.90;;;3.93;;
12312;SDS011;6220;53.580;9.758;2023-04-27T04:40:23;6.67;;;3.70;;
12312;SDS011;6220;53.580;9.758;2023-04-27T04:42:49;6.00;;;3.77;;
12312;SDS011;6220;53.580;9.758;2023-04-27T04:45:15;8.67;;;3.77;;
12312;SDS011;6220;53.580;9.758;2023-04-27T04:47:40;8.27;;;3.60;;
12312;SDS011;6220;53.580;9.758;2023-04-27T04:50:05;6.43;;;3.97;;
12312;SDS011;6220;53.580;9.758;2023-04-27T04:52:32;8.13;;;4.50;;
12312;SDS011;6220;53.580;9.758;2023-04-27T04:54:58;6.37;;;3.70;;
12312;SDS011;6220;53.580;9.758;2023-04-27T04:57:23;4.87;;;3.60;;
12312;SDS011;6220;53.580;9.758;2023-04-27T04:59:49;7.63;;;4.00;;
12312;SDS011;6220;53.580;9.758;2023-04-27T05:02:15;6.27;;;3.87;;
12312;SDS011;6220;53.580;9.758;2023-04-27T05:04:40;6.40;;;4.17;;
12312;SDS011;6220;53.580;9.758;2023-04-27T05:07:05;9.57;;;4.17;;
12312;SDS011;6220;53.580;9.758;2023-04-27T05:09:31;6.00;;;4.07;;
12312;SDS011;6220;53.580;9.758;2023-04-27T05:11:56;5.53;;;4.07;;
12312;SDS011;6220;53.580;9.758;2023-04-27T05:14:21;7.43;;;4.23;;
12312;SDS011;6220;53.580;9.758;2023-04-27T05:16:47;7.50;;;4.00;;
12312;SDS011;6220;53.580;9.758;2023-04-27T05:19:13;10.37;;;4.00;;
12312;SDS011;6220;53.580;9.758;2023-04-27T05:21:42;16.03;;;4.57;;
12312;SDS011;6220;53.580;9.758;2023-04-27T05:24:08;5.80;;;3.53;;
12312;SDS011;6220;53.580;9.758;2023-04-27T05:26:34;8.43;;;3.70;;
12312;SDS011;6220;53.580;9.758;2023-04-27T05:29:00;4.93;;;3.57;;
12312;SDS011;6220;53.580;9.758;2023-04-27T05:31:26;8.40;;;4.17;;
12312;SDS011;6220;53.580;9.758;2023-04-27T05:33:51;6.00;;;3.57;;
12312;SDS011;6220;53.580;9.758;2023-04-27T05:36:17;5.80;;;3.90;;
12312;SDS011;6220;53.580;9.758;2023-04-27T05:38:42;6.70;;;4.63;;
12312;SDS011;6220;53.580;9.758;2023-04-27T05:41:09;7.13;;;4.13;;
12312;SDS011;6220;53.580;9.758;2023-04-27T05:43:34;6.03;;;3.67;;
12312;SDS011;6220;53.580;9.758;2023-04-27T05:46:02;5.50;;;3.50;;
12312;SDS011;6220;53.580;9.758;2023-04-27T05:48:27;5.27;;;4.00;;
12312;SDS011;6220;53.580;9.758;2023-04-27T05:50:59;7.27;;;3.50;;
12312;SDS011;6220;53.580;9.758;2023-04-27T05:53:25;6.30;;;4.07;;
12312;SDS011;6220;53.580;9.758;2023-04-27T05:55:51;6.83;;;3.73;;
12312;SDS011;6220;53.580;9.758;2023-04-27T05:58:16;12.07;;;4.23;;
12312;SDS011;6220;53.580;9.758;2023-04-27T06:00:42;7.07;;;3.97;;
12312;SDS011;6220;53.580;9.758;2023-04-27T06:03:07;8.20;;;3.80;;
12312;SDS011;6220;53.580;9.758;2023-04-27T06:05:33;6.23;;;3.70;;
12312;SDS011;6220;53.580;9.758;2023-04-27T06:07:58;6.67;;;4.17;;
12312;SDS011;6220;53.580;9.758;2023-04-27T06:10:24;7.43;;;4.37;;
12312;SDS011;6220;53.580;9.758;2023-04-27T06:12:49;6.47;;;4.10;;
12312;SDS011;6220;53.580;9.758;2023-04-27T06:15:15;10.20;;;4.17;;
12312;SDS011;6220;53.580;9.758;2023-04-27T06:17:41;10.20;;;3.97;;
12312;SDS011;6220;53.580;9.758;2023-04-27T06:20:07;6.07;;;3.70;;
12312;SDS011;6220;53.580;9.758;2023-04-27T06:22:33;6.97;;;3.60;;
12312;SDS011;6220;53.580;9.758;2023-04-27T06:25:03;10.87;;;3.90;;
12312;SDS011;6220;53.580;9.758;2023-04-27T06:27:32;7.43;;;3.50;;
12312;SDS011;6220;53.580;9.758;2023-04-27T06:29:57;7.50;;;3.87;;
12312;SDS011;6220;53.580;9.758;2023-04-27T06:32:23;7.03;;;3.80;;
12312;SDS011;6220;53.580;9.758;2023-04-27T06:34:48;4.83;;;3.33;;
12312;SDS011;6220;53.580;9.758;2023-04-27T06:37:15;6.13;;;3.23;;
12312;SDS011;6220;53.580;9.758;2023-04-27T06:39:42;6.57;;;3.50;;
12312;SDS011;6220;53.580;9.758;2023-04-27T06:42:08;8.23;;;3.00;;
12312;SDS011;6220;53.580;9.758;2023-04-27T06:44:34;5.80;;;3.07;;
12312;SDS011;6220;53.580;9.758;2023-04-27T06:46:59;8.77;;;3.67;;
12312;SDS011;6220;53.580;9.758;2023-04-27T06:49:24;7.40;;;3.40;;
12312;SDS011;6220;53.580;9.758;2023-04-27T06:51:50;6.63;;;3.20;;
12312;SDS011;6220;53.580;9.758;2023-04-27T06:54:16;4.53;;;2.60;;
12312;SDS011;6220;53.580;9.758;2023-04-27T06:56:41;6.83;;;2.87;;
12312;SDS011;6220;53.580;9.758;2023-04-27T06:59:07;5.00;;;3.07;;
12312;SDS011;6220;53.580;9.758;2023-04-27T07:01:33;4.97;;;2.53;;
12312;SDS011;6220;53.580;9.758;2023-04-27T07:03:58;5.07;;;3.00;;
12312;SDS011;6220;53.580;9.758;2023-04-27T07:06:24;7.83;;;2.80;;
12312;SDS011;6220;53.580;9.758;2023-04-27T07:08:50;5.77;;;2.77;;
12312;SDS011;6220;53.580;9.758;2023-04-27T07:11:15;5.13;;;2.57;;
12312;SDS011;6220;53.580;9.758;2023-04-27T07:13:41;3.80;;;2.77;;
12312;SDS011;6220;53.580;9.758;2023-04-27T07:16:07;5.43;;;2.33;;
12312;SDS011;6220;53.580;9.758;2023-04-27T07:18:32;4.70;;;2.50;;
12312;SDS011;6220;53.580;9.758;2023-04-27T07:20:58;3.83;;;2.27;;
12312;SDS011;6220;53.580;9.758;2023-04-27T07:23:23;7.47;;;2.53;;
12312;SDS011;6220;53.580;9.758;2023-04-27T07:25:49;7.40;;;2.87;;
12312;SDS011;6220;53.580;9.758;2023-04-27T07:28:14;7.30;;;2.60;;
12312;SDS011;6220;53.580;9.758;2023-04-27T07:30:40;4.70;;;2.50;;
12312;SDS011;6220;53.580;9.758;2023-04-27T07:33:06;3.87;;;2.50;;
12312;SDS011;6220;53.580;9.758;2023-04-27T07:35:33;4.97;;;2.70;;
12312;SDS011;6220;53.580;9.758;2023-04-27T07:37:59;6.10;;;2.63;;
12312;SDS011;6220;53.580;9.758;2023-04-27T07:40:26;6.97;;;2.53;;
12312;SDS011;6220;53.580;9.758;2023-04-27T07:42:52;3.53;;;2.23;;
12312;SDS011;6220;53.580;9.758;2023-04-27T07:45:18;6.63;;;2.60;;
12312;SDS011;6220;53.580;9.758;2023-04-27T07:47:43;3.27;;;2.40;;
12312;SDS011;6220;53.580;9.758;2023-04-27T07:50:10;3.83;;;2.30;;
12312;SDS011;6220;53.580;9.758;2023-04-27T07:52:36;4.53;;;2.73;;
12312;SDS011;6220;53.580;9.758;2023-04-27T07:55:02;5.53;;;2.30;;
12312;SDS011;6220;53.580;9.758;2023-04-27T07:57:28;5.03;;;2.47;;
12312;SDS011;6220;53.580;9.758;2023-04-27T07:59:53;5.60;;;2.03;;
12312;SDS011;6220;53.580;9.758;2023-04-27T08:02:19;4.67;;;2.30;;
12312;SDS011;6220;53.580;9.758;2023-04-27T08:04:45;4.97;;;2.90;;
12312;SDS011;6220;53.580;9.758;2023-04-27T08:07:10;5.37;;;2.40;;
12312;SDS011;6220;53.580;9.758;2023-04-27T08:09:36;6.07;;;2.70;;
12312;SDS011;6220;53.580;9.758;2023-04-27T08:12:01;6.97;;;2.57;;
12312;SDS011;6220;53.580;9.758;2023-04-27T08:14:28;5.80;;;2.70;;
12312;SDS011;6220;53.580;9.758;2023-04-27T08:16:53;4.57;;;2.57;;
12312;SDS011;6220;53.580;9.758;2023-04-27T08:19:18;5.37;;;2.37;;
12312;SDS011;6220;53.580;9.758;2023-04-27T08:21:44;3.93;;;2.53;;
12312;SDS011;6220;53.580;9.758;2023-04-27T08:24:12;8.53;;;2.73;;
12312;SDS011;6220;53.580;9.758;2023-04-27T08:26:37;4.47;;;2.67;;
12312;SDS011;6220;53.580;9.758;2023-04-27T08:29:02;4.30;;;2.40;;
12312;SDS011;6220;53.580;9.758;2023-04-27T08:31:28;4.40;;;2.20;;
12312;SDS011;6220;53.580;9.758;2023-04-27T08:33:53;5.13;;;2.37;;
12312;SDS011;6220;53.580;9.758;2023-04-27T08:36:22;10.07;;;2.67;;
12312;SDS011;6220;53.580;9.758;2023-04-27T08:38:51;3.90;;;2.43;;
12312;SDS011;6220;53.580;9.758;2023-04-27T08:41:20;5.03;;;2.33;;
12312;SDS011;6220;53.580;9.758;2023-04-27T08:43:46;5.93;;;2.30;;
12312;SDS011;6220;53.580;9.758;2023-04-27T08:46:16;5.33;;;2.40;;
12312;SDS011;6220;53.580;9.758;2023-04-27T08:48:43;4.03;;;2.47;;
12312;SDS011;6220;53.580;9.758;2023-04-27T08:51:08;3.23;;;2.27;;
12312;SDS011;6220;53.580;9.758;2023-04-27T08:53:35;5.77;;;2.50;;
12312;SDS011;6220;53.580;9.758;2023-04-27T08:56:00;3.27;;;2.23;;
12312;SDS011;6220;53.580;9.758;2023-04-27T08:58:35;4.23;;;2.60;;
12312;SDS011;6220;53.580;9.758;2023-04-27T09:01:04;6.03;;;2.43;;
12312;SDS011;6220;53.580;9.758;2023-04-27T09:03:32;4.67;;;2.67;;
12312;SDS011;6220;53.580;9.758;2023-04-27T09:05:59;5.07;;;2.63;;
12312;SDS011;6220;53.580;9.758;2023-04-27T09:08:25;5.20;;;2.70;;
12312;SDS011;6220;53.580;9.758;2023-04-27T09:10:51;4.13;;;2.27;;
12312;SDS011;6220;53.580;9.758;2023-04-27T09:13:17;6.77;;;2.60;;
12312;SDS011;6220;53.580;9.758;2023-04-27T09:15:43;4.73;;;2.60;;
12312;SDS011;6220;53.580;9.758;2023-04-27T09:18:23;9.83;;;2.67;;
12312;SDS011;6220;53.580;9.758;2023-04-27T09:20:49;3.50;;;2.23;;
12312;SDS011;6220;53.580;9.758;2023-04-27T09:23:26;5.13;;;2.40;;
12312;SDS011;6220;53.580;9.758;2023-04-27T09:25:56;4.47;;;2.83;;
12312;SDS011;6220;53.580;9.758;2023-04-27T09:28:23;5.53;;;2.60;;
12312;SDS011;6220;53.580;9.758;2023-04-27T09:30:52;7.90;;;2.83;;
12312;SDS011;6220;53.580;9.758;2023-04-27T09:33:23;3.57;;;2.50;;
12312;SDS011;6220;53.580;9.758;2023-04-27T09:36:02;3.93;;;2.37;;
12312;SDS011;6220;53.580;9.758;2023-04-27T09:38:29;3.57;;;2.50;;
12312;SDS011;6220;53.580;9.758;2023-04-27T09:40:55;5.00;;;2.67;;
12312;SDS011;6220;53.580;9.758;2023-04-27T09:43:21;3.23;;;2.63;;
12312;SDS011;6220;53.580;9.758;2023-04-27T09:45:49;3.70;;;2.80;;
12312;SDS011;6220;53.580;9.758;2023-04-27T09:48:15;4.43;;;2.67;;
12312;SDS011;6220;53.580;9.758;2023-04-27T09:50:41;4.43;;;2.30;;
12312;SDS011;6220;53.580;9.758;2023-04-27T09:53:10;4.73;;;2.30;;
12312;SDS011;6220;53.580;9.758;2023-04-27T09:55:43;3.70;;;2.60;;
12312;SDS011;6220;53.580;9.758;2023-04-27T10:09:36;5.37;;;3.07;;
12312;SDS011;6220;53.580;9.758;2023-04-27T10:14:53;3.13;;;2.30;;
12312;SDS011;6220;53.580;9.758;2023-04-27T10:17:29;4.27;;;2.53;;
12312;SDS011;6220;53.580;9.758;2023-04-27T10:20:00;5.57;;;2.80;;
12312;SDS011;6220;53.580;9.758;2023-04-27T10:22:38;4.43;;;2.67;;
12312;SDS011;6220;53.580;9.758;2023-04-27T10:25:18;3.67;;;2.50;;
12312;SDS011;6220;53.580;9.758;2023-04-27T10:27:54;3.10;;;2.67;;
12312;SDS011;6220;53.580;9.758;2023-04-27T10:30:22;5.93;;;2.90;;
12312;SDS011;6220;53.580;9.758;2023-04-27T10:32:57;3.80;;;2.50;;
12312;SDS011;6220;53.580;9.758;2023-04-27T10:35:33;4.00;;;2.80;;
12312;SDS011;6220;53.580;9.758;2023-04-27T10:38:19;5.00;;;2.80;;
12312;SDS011;6220;53.580;9.758;2023-04-27T10:40:53;5.10;;;3.50;;
12312;SDS011;6220;53.580;9.758;2023-04-27T10:43:22;5.53;;;3.83;;
12312;SDS011;6220;53.580;9.758;2023-04-27T10:45:51;4.03;;;3.20;;
12312;SDS011;6220;53.580;9.758;2023-04-27T10:48:17;5.73;;;3.63;;
12312;SDS011;6220;53.580;9.758;2023-04-27T10:50:42;6.43;;;3.50;;
12312;SDS011;6220;53.580;9.758;2023-04-27T10:53:13;5.10;;;3.40;;
12312;SDS011;6220;53.580;9.758;2023-04-27T10:55:40;4.30;;;3.23;;
12312;SDS011;6220;53.580;9.758;2023-04-27T10:58:06;6.87;;;3.47;;
12312;SDS011;6220;53.580;9.758;2023-04-27T11:03:15;6.17;;;3.63;;
12312;SDS011;6220;53.580;9.758;2023-04-27T11:05:43;4.63;;;3.13;;
12312;SDS011;6220;53.580;9.758;2023-04-27T11:08:10;9.40;;;3.67;;
12312;SDS011;6220;53.580;9.758;2023-04-27T11:10:37;5.27;;;3.57;;
12312;SDS011;6220;53.580;9.758;2023-04-27T11:13:10;5.70;;;2.90;;
12312;SDS011;6220;53.580;9.758;2023-04-27T11:15:45;6.23;;;3.40;;
12312;SDS011;6220;53.580;9.758;2023-04-27T11:18:22;5.73;;;3.27;;
12312;SDS011;6220;53.580;9.758;2023-04-27T11:20:48;4.40;;;3.03;;
12312;SDS011;6220;53.580;9.758;2023-04-27T11:23:29;4.33;;;3.03;;
12312;SDS011;6220;53.580;9.758;2023-04-27T11:26:21;5.97;;;3.50;;
12312;SDS011;6220;53.580;9.758;2023-04-27T11:28:57;5.80;;;3.70;;
12312;SDS011;6220;53.580;9.758;2023-04-27T11:31:25;5.07;;;3.33;;
12312;SDS011;6220;53.580;9.758;2023-04-27T11:33:50;8.10;;;3.70;;
12312;SDS011;6220;53.580;9.758;2023-04-27T11:36:16;5.43;;;3.30;;
12312;SDS011;6220;53.580;9.758;2023-04-27T11:38:43;5.63;;;3.77;;
12312;SDS011;6220;53.580;9.758;2023-04-27T11:41:08;3.13;;;2.83;;
12312;SDS011;6220;53.580;9.758;2023-04-27T11:43:35;4.17;;;2.80;;
12312;SDS011;6220;53.580;9.758;2023-04-27T11:46:04;5.63;;;3.23;;
12312;SDS011;6220;53.580;9.758;2023-04-27T11:48:31;6.90;;;3.87;;
12312;SDS011;6220;53.580;9.758;2023-04-27T11:50:57;4.67;;;2.80;;
12312;SDS011;6220;53.580;9.758;2023-04-27T11:53:46;3.80;;;2.90;;
12312;SDS011;6220;53.580;9.758;2023-04-27T11:56:12;5.10;;;3.00;;
12312;SDS011;6220;53.580;9.758;2023-04-27T11:58:37;4.67;;;3.30;;
12312;SDS011;6220;53.580;9.758;2023-04-27T12:01:03;7.67;;;3.30;;
12312;SDS011;6220;53.580;9.758;2023-04-27T12:03:31;6.47;;;3.30;;
12312;SDS011;6220;53.580;9.758;2023-04-27T12:05:56;4.23;;;2.83;;
12312;SDS011;6220;53.580;9.758;2023-04-27T12:08:22;5.83;;;3.30;;
12312;SDS011;6220;53.580;9.758;2023-04-27T12:10:48;5.10;;;3.27;;
12312;SDS011;6220;53.580;9.758;2023-04-27T12:13:13;7.27;;;3.57;;
12312;SDS011;6220;53.580;9.758;2023-04-27T12:15:39;5.97;;;2.80;;
12312;SDS011;6220;53.580;9.758;2023-04-27T12:18:05;6.50;;;3.43;;
12312;SDS011;6220;53.580;9.758;2023-04-27T12:20:31;9.23;;;3.50;;
12312;SDS011;6220;53.580;9.758;2023-04-27T12:22:57;4.87;;;3.67;;
12312;SDS011;6220;53.580;9.758;2023-04-27T12:25:22;4.40;;;3.37;;
12312;SDS011;6220;53.580;9.758;2023-04-27T12:27:48;6.57;;;3.50;;
12312;SDS011;6220;53.580;9.758;2023-04-27T12:30:14;4.80;;;3.33;;
12312;SDS011;6220;53.580;9.758;2023-04-27T12:32:40;5.70;;;3.10;;
12312;SDS011;6220;53.580;9.758;2023-04-27T12:35:06;5.53;;;3.20;;
12312;SDS011;6220;53.580;9.758;2023-04-27T12:37:32;7.50;;;4.27;;
12312;SDS011;6220;53.580;9.758;2023-04-27T12:39:58;7.67;;;4.30;;
12312;SDS011;6220;53.580;9.758;2023-04-27T12:42:23;7.03;;;3.60;;
12312;SDS011;6220;53.580;9.758;2023-04-27T12:44:49;3.93;;;3.50;;
12312;SDS011;6220;53.580;9.758;2023-04-27T12:47:24;6.27;;;3.47;;
12312;SDS011;6220;53.580;9.758;2023-04-27T12:49:49;5.07;;;3.40;;
12312;SDS011;6220;53.580;9.758;2023-04-27T12:52:15;6.23;;;3.70;;
12312;SDS011;6220;53.580;9.758;2023-04-27T12:54:40;4.97;;;3.67;;
12312;SDS011;6220;53.580;9.758;2023-04-27T12:57:06;6.73;;;3.90;;
12312;SDS011;6220;53.580;9.758;2023-04-27T12:59:32;5.07;;;3.83;;
12312;SDS011;6220;53.580;9.758;2023-04-27T13:01:58;5.47;;;3.43;;
12312;SDS011;6220;53.580;9.758;2023-04-27T13:04:25;5.27;;;3.70;;
12312;SDS011;6220;53.580;9.758;2023-04-27T13:06:50;9.93;;;4.80;;
12312;SDS011;6220;53.580;9.758;2023-04-27T13:09:16;6.80;;;5.20;;
12312;SDS011;6220;53.580;9.758;2023-04-27T13:11:41;5.40;;;3.27;;
12312;SDS011;6220;53.580;9.758;2023-04-27T13:14:06;5.40;;;3.73;;
12312;SDS011;6220;53.580;9.758;2023-04-27T13:16:32;7.27;;;3.30;;
12312;SDS011;6220;53.580;9.758;2023-04-27T13:18:57;6.23;;;3.67;;
12312;SDS011;6220;53.580;9.758;2023-04-27T13:21:22;5.23;;;3.20;;
12312;SDS011;6220;53.580;9.758;2023-04-27T13:23:48;5.50;;;2.83;;
12312;SDS011;6220;53.580;9.758;2023-04-27T13:26:14;4.93;;;3.03;;
12312;SDS011;6220;53.580;9.758;2023-04-27T13:28:40;6.77;;;3.17;;
12312;SDS011;6220;53.580;9.758;2023-04-27T13:31:07;3.90;;;3.07;;
12312;SDS011;6220;53.580;9.758;2023-04-27T13:33:38;5.03;;;3.10;;
12312;SDS011;6220;53.580;9.758;2023-04-27T13:36:07;5.33;;;3.10;;
12312;SDS011;6220;53.580;9.758;2023-04-27T13:38:33;5.40;;;3.20;;
12312;SDS011;6220;53.580;9.758;2023-04-27T13:40:58;4.07;;;3.10;;
12312;SDS011;6220;53.580;9.758;2023-04-27T13:43:24;4.93;;;3.37;;
12312;SDS011;6220;53.580;9.758;2023-04-27T13:45:51;4.90;;;3.00;;
12312;SDS011;6220;53.580;9.758;2023-04-27T13:48:18;4.17;;;3.30;;
12312;SDS011;6220;53.580;9.758;2023-04-27T13:50:43;6.77;;;3.37;;
12312;SDS011;6220;53.580;9.758;2023-04-27T13:53:09;7.93;;;4.60;;
12312;SDS011;6220;53.580;9.758;2023-04-27T13:55:36;6.97;;;3.40;;
12312;SDS011;6220;53.580;9.758;2023-04-27T13:58:02;3.90;;;3.07;;
12312;SDS011;6220;53.580;9.758;2023-04-27T14:00:28;5.23;;;3.10;;
12312;SDS011;6220;53.580;9.758;2023-04-27T14:02:57;4.03;;;3.23;;
12312;SDS011;6220;53.580;9.758;2023-04-27T14:05:24;7.17;;;3.50;;
12312;SDS011;6220;53.580;9.758;2023-04-27T14:07:49;4.40;;;3.30;;
12312;SDS011;6220;53.580;9.758;2023-04-27T14:10:14;5.80;;;3.47;;
12312;SDS011;6220;53.580;9.758;2023-04-27T14:12:40;3.90;;;3.10;;
12312;SDS011;6220;53.580;9.758;2023-04-27T14:15:06;7.33;;;3.77;;
12312;SDS011;6220;53.580;9.758;2023-04-27T14:17:32;5.67;;;3.30;;
12312;SDS011;6220;53.580;9.758;2023-04-27T14:19:58;5.80;;;3.40;;
12312;SDS011;6220;53.580;9.758;2023-04-27T14:22:23;4.60;;;2.90;;
12312;SDS011;6220;53.580;9.758;2023-04-27T14:24:48;4.27;;;3.10;;
12312;SDS011;6220;53.580;9.758;2023-04-27T14:27:14;5.83;;;3.40;;
12312;SDS011;6220;53.580;9.758;2023-04-27T14:29:40;5.30;;;3.60;;
12312;SDS011;6220;53.580;9.758;2023-04-27T14:32:05;7.07;;;3.73;;
12312;SDS011;6220;53.580;9.758;2023-04-27T14:34:30;4.90;;;3.50;;
12312;SDS011;6220;53.580;9.758;2023-04-27T14:36:56;7.83;;;4.50;;
12312;SDS011;6220;53.580;9.758;2023-04-27T14:39:21;5.13;;;3.90;;
12312;SDS011;6220;53.580;9.758;2023-04-27T14:41:47;4.60;;;4.00;;
12312;SDS011;6220;53.580;9.758;2023-04-27T14:44:12;5.57;;;4.27;;
12312;SDS011;6220;53.580;9.758;2023-04-27T14:46:37;4.50;;;3.90;;
12312;SDS011;6220;53.580;9.758;2023-04-27T14:49:03;5.23;;;4.13;;
12312;SDS011;6220;53.580;9.758;2023-04-27T14:51:28;6.80;;;4.60;;
12312;SDS011;6220;53.580;9.758;2023-04-27T14:53:54;6.23;;;4.50;;
12312;SDS011;6220;53.580;9.758;2023-04-27T14:56:20;6.47;;;4.10;;
12312;SDS011;6220;53.580;9.758;2023-04-27T14:58:47;5.30;;;4.30;;
12312;SDS011;6220;53.580;9.758;2023-04-27T15:01:12;6.47;;;4.60;;
12312;SDS011;6220;53.580;9.758;2023-04-27T15:03:37;8.03;;;4.23;;
12312;SDS011;6220;53.580;9.758;2023-04-27T15:06:03;5.47;;;4.27;;
12312;SDS011;6220;53.580;9.758;2023-04-27T15:08:29;7.13;;;4.60;;
12312;SDS011;6220;53.580;9.758;2023-04-27T15:10:55;7.70;;;4.33;;
12312;SDS011;6220;53.580;9.758;2023-04-27T15:13:23;5.53;;;4.50;;